Time;durP1;ratioP1;P1;durP2;ratioP2;P2;SDS_P1;SDS_P2;PMS_P1;PMS_P2;Temp;Humidity;BMP_temperature;BMP_pressure;BME280_temperature;BME280_humidity;BME280_pressure;Samples;Min_cycle;Max_cycle;Signal;HPM_P1;HPM_P2
2022/07/05 00:01:15;;;;;;;2.72;1.23;;;;;;;13.66;57.96;100875.16;4985604;28;20050;-46
2022/07/05 00:03:42;;;;;;;3.75;1.20;;;;;;;13.64;59.26;100876.06;4986834;28;20108;-46
2022/07/05 00:06:08;;;;;;;4.75;1.33;;;;;;;13.60;59.27;100870.84;4985246;28;20050;-47
2022/07/05 00:08:35;;;;;;;3.63;1.17;;;;;;;13.56;59.47;100869.13;4977460;28;20109;-45
2022/07/05 00:11:02;;;;;;;2.40;1.30;;;;;;;13.54;58.18;100865.63;4986936;28;21082;-45
2022/07/05 00:13:29;;;;;;;2.05;1.13;;;;;;;13.51;58.28;100870.84;4983424;28;20093;-45
2022/07/05 00:15:55;;;;;;;5.22;1.15;;;;;;;13.45;58.77;100863.03;4983946;28;20584;-44
2022/07/05 00:18:22;;;;;;;3.80;1.48;;;;;;;13.41;59.46;100866.50;4987355;28;20053;-47
2022/07/05 00:20:49;;;;;;;3.50;0.98;;;;;;;13.37;58.83;100863.91;4984778;28;20046;-46
2022/07/05 00:23:15;;;;;;;2.58;1.08;;;;;;;13.31;58.77;100866.50;4982834;28;20826;-45
2022/07/05 00:25:42;;;;;;;2.85;1.30;;;;;;;13.26;58.50;100860.44;4980614;28;20046;-44
2022/07/05 00:28:10;;;;;;;3.38;1.05;;;;;;;13.22;59.14;100864.78;4986130;28;20046;-47
2022/07/05 00:30:37;;;;;;;3.60;1.40;;;;;;;13.18;58.98;100870.00;4983402;28;20046;-47
2022/07/05 00:33:04;;;;;;;2.95;1.27;;;;;;;13.15;59.24;100877.78;4981939;28;20117;-46
2022/07/05 00:35:31;;;;;;;1.60;0.95;;;;;;;13.11;58.88;100871.72;4985939;28;20050;-46
2022/07/05 00:37:57;;;;;;;4.53;1.27;;;;;;;13.07;59.88;100868.25;4984541;28;20113;-45
2022/07/05 00:40:24;;;;;;;2.78;1.02;;;;;;;13.05;59.33;100867.41;4986135;28;20049;-46
2022/07/05 00:42:51;;;;;;;2.95;1.30;;;;;;;13.02;59.46;100867.41;4980381;28;20057;-45
2022/07/05 00:45:18;;;;;;;2.10;1.00;;;;;;;13.00;59.23;100874.31;4986162;28;20050;-47
2022/07/05 00:47:44;;;;;;;3.15;1.00;;;;;;;12.98;60.38;100866.50;4983543;28;20306;-45
2022/07/05 00:50:11;;;;;;;1.75;1.15;;;;;;;12.96;59.05;100867.38;4981676;28;20066;-45
2022/07/05 00:52:38;;;;;;;4.13;0.98;;;;;;;12.95;58.96;100876.06;4984291;28;20047;-45
2022/07/05 00:55:05;;;;;;;4.68;0.98;;;;;;;12.92;59.69;100870.84;4986614;28;20065;-45
2022/07/05 00:57:33;;;;;;;4.22;0.98;;;;;;;12.90;60.17;100868.25;4978034;28;20066;-45
2022/07/05 01:00:00;;;;;;;2.45;1.20;;;;;;;12.87;59.98;100867.38;4981530;28;20050;-45
2022/07/05 01:02:26;;;;;;;2.92;1.10;;;;;;;12.80;59.24;100862.16;4986891;28;20096;-46
2022/07/05 01:04:53;;;;;;;4.15;1.88;;;;;;;12.79;60.80;100860.44;4983826;28;20447;-46
2022/07/05 01:07:22;;;;;;;3.45;1.48;;;;;;;12.77;59.50;100862.16;4983238;28;20046;-45
2022/07/05 01:09:49;;;;;;;2.95;1.27;;;;;;;12.76;60.37;100865.63;4982772;28;20883;-44
2022/07/05 01:12:17;;;;;;;2.17;1.08;;;;;;;12.73;60.21;100858.69;4981275;28;20058;-46
2022/07/05 01:14:45;;;;;;;4.25;1.42;;;;;;;12.71;60.19;100862.16;4982795;28;20046;-44
2022/07/05 01:17:13;;;;;;;2.70;1.02;;;;;;;12.70;60.87;100873.44;4983780;28;20053;-45
2022/07/05 01:19:40;;;;;;;4.13;1.70;;;;;;;12.67;59.58;100869.06;4980150;28;20046;-46
2022/07/05 01:22:15;;;;;;;3.40;1.40;;;;;;;12.65;60.64;100867.34;4984506;28;20054;-44
2022/07/05 01:24:43;;;;;;;4.07;1.30;;;;;;;12.64;59.65;100878.63;4979127;28;20557;-44
2022/07/05 01:27:10;;;;;;;4.18;0.95;;;;;;;12.63;60.92;100874.28;4976788;28;20054;-47
2022/07/05 01:29:37;;;;;;;3.22;1.30;;;;;;;12.62;59.85;100869.94;4983883;28;20691;-48
2022/07/05 01:32:04;;;;;;;2.22;0.95;;;;;;;12.60;60.08;100869.97;4982902;28;20058;-46
2022/07/05 01:34:31;;;;;;;2.90;0.80;;;;;;;12.57;60.26;100876.00;4982690;28;20202;-46
2022/07/05 01:36:57;;;;;;;3.65;1.80;;;;;;;12.54;60.85;100870.81;4984398;28;20050;-44
2022/07/05 01:39:24;;;;;;;4.38;1.83;;;;;;;12.49;60.63;100872.50;4981689;28;20065;-45
2022/07/05 01:41:51;;;;;;;4.45;2.10;;;;;;;12.46;60.69;100873.38;4981366;28;20438;-44
2022/07/05 01:44:17;;;;;;;2.83;1.55;;;;;;;12.45;59.92;100873.38;4980859;28;20042;-45
2022/07/05 01:46:44;;;;;;;4.00;1.70;;;;;;;12.43;60.86;100877.72;4983805;28;20054;-44
2022/07/05 01:49:16;;;;;;;3.58;1.45;;;;;;;12.41;60.09;100869.03;4984811;28;20050;-44
2022/07/05 01:51:54;;;;;;;4.20;2.20;;;;;;;12.32;60.50;100881.13;4980130;28;20511;-44
2022/07/05 01:54:21;;;;;;;4.93;2.08;;;;;;;12.31;60.48;100876.81;4986743;28;20070;-46
2022/07/05 01:56:48;;;;;;;3.08;1.45;;;;;;;12.29;61.59;100878.50;4982640;28;20042;-44
2022/07/05 01:59:15;;;;;;;4.38;1.42;;;;;;;12.27;61.38;100872.47;4981146;28;20046;-44
2022/07/05 02:01:41;;;;;;;3.83;1.77;;;;;;;12.26;61.39;100873.31;4978905;28;20046;-44
2022/07/05 02:04:10;;;;;;;3.55;1.55;;;;;;;12.25;60.81;100871.56;4981019;28;20510;-44
2022/07/05 02:06:37;;;;;;;3.72;1.58;;;;;;;12.22;61.25;100874.16;4986518;28;20050;-44
2022/07/05 02:09:06;;;;;;;4.15;2.45;;;;;;;12.21;60.39;100868.13;4985202;28;20391;-44
2022/07/05 02:11:34;;;;;;;5.80;1.52;;;;;;;12.17;61.57;100865.50;4987533;28;20046;-44
2022/07/05 02:14:01;;;;;;;2.97;1.45;;;;;;;12.12;61.37;100862.88;4983530;28;20090;-45
2022/07/05 02:16:28;;;;;;;6.25;2.17;;;;;;;12.07;61.48;100860.28;4987183;28;20820;-44
2022/07/05 02:18:56;;;;;;;4.35;1.40;;;;;;;12.03;61.33;100861.06;4983683;28;20050;-45
2022/07/05 02:21:22;;;;;;;3.00;1.42;;;;;;;11.99;61.96;100861.91;4984711;28;20050;-44
2022/07/05 02:23:49;;;;;;;4.57;1.80;;;;;;;11.97;61.30;100858.47;4987769;28;20042;-44
2022/07/05 02:26:16;;;;;;;2.20;1.50;;;;;;;11.96;61.77;100861.91;4983713;28;20049;-44
2022/07/05 02:28:43;;;;;;;3.60;1.83;;;;;;;11.95;62.20;100862.75;4984312;28;20050;-44
2022/07/05 02:31:10;;;;;;;3.40;1.52;;;;;;;11.93;62.38;100867.09;4982681;28;20054;-45
2022/07/05 02:33:37;;;;;;;3.97;1.38;;;;;;;11.91;61.89;100861.00;4979987;28;20050;-47
2022/07/05 02:36:08;;;;;;;4.07;1.42;;;;;;;11.89;62.47;100860.16;4985838;28;20051;-44
2022/07/05 02:38:35;;;;;;;4.20;1.50;;;;;;;11.85;62.43;100861.00;4985393;28;20482;-44
2022/07/05 02:41:11;;;;;;;2.72;1.40;;;;;;;11.80;62.16;100861.84;4985764;28;20116;-44
2022/07/05 02:43:39;;;;;;;2.65;1.30;;;;;;;11.81;62.78;100865.28;4983957;28;20084;-44
2022/07/05 02:46:08;;;;;;;3.53;1.52;;;;;;;11.80;62.44;100858.38;4987627;28;20054;-46
2022/07/05 02:48:36;;;;;;;4.50;2.55;;;;;;;11.78;62.24;100853.16;4988069;28;20427;-46
2022/07/05 02:51:04;;;;;;;3.20;1.60;;;;;;;11.77;62.82;100863.53;4989232;28;20050;-45
2022/07/05 02:53:31;;;;;;;2.88;1.50;;;;;;;11.74;62.06;100864.41;4985083;28;20066;-45
2022/07/05 02:55:57;;;;;;;3.03;1.35;;;;;;;11.73;63.19;100862.66;4985078;28;20453;-43
2022/07/05 02:58:24;;;;;;;6.80;1.52;;;;;;;11.71;62.26;100861.78;4984801;28;20050;-44
2022/07/05 03:00:51;;;;;;;3.10;1.67;;;;;;;11.68;62.95;100862.63;4987059;28;20050;-43
2022/07/05 03:03:17;;;;;;;3.05;1.23;;;;;;;11.67;62.81;100857.44;4985861;28;20555;-44
2022/07/05 03:05:44;;;;;;;3.78;1.58;;;;;;;11.66;62.74;100864.34;4983321;28;20133;-44
2022/07/05 03:08:11;;;;;;;7.57;1.80;;;;;;;11.65;62.64;100862.59;4985868;28;20042;-43
2022/07/05 03:10:38;;;;;;;3.92;2.15;;;;;;;11.64;63.42;100858.28;4988995;28;20057;-45
2022/07/05 03:13:05;;;;;;;2.80;1.48;;;;;;;11.65;63.39;100861.75;4981961;28;20043;-44
2022/07/05 03:15:32;;;;;;;2.13;1.20;;;;;;;11.65;63.68;100864.34;4981823;28;20501;-44
2022/07/05 03:17:59;;;;;;;6.03;1.48;;;;;;;11.67;62.81;100860.03;4985538;28;20046;-44
2022/07/05 03:20:25;;;;;;;3.00;1.58;;;;;;;11.68;62.86;100866.94;4984570;28;20050;-45
2022/07/05 03:22:52;;;;;;;3.08;1.60;;;;;;;11.71;63.71;100864.38;4980120;28;20061;-48
2022/07/05 03:25:19;;;;;;;5.32;1.58;;;;;;;11.73;63.36;100870.44;4985874;28;20046;-45
2022/07/05 03:27:45;;;;;;;3.78;1.58;;;;;;;11.76;63.70;100877.38;4982358;28;20494;-45
2022/07/05 03:30:13;;;;;;;4.70;1.45;;;;;;;11.81;63.03;100873.94;4984336;28;20046;-45
2022/07/05 03:32:39;;;;;;;3.08;1.40;;;;;;;11.86;63.84;100871.38;4984427;28;20053;-46
2022/07/05 03:35:07;;;;;;;3.72;1.38;;;;;;;11.89;63.04;100876.56;4978981;28;20058;-45
2022/07/05 03:37:33;;;;;;;4.20;1.65;;;;;;;11.93;63.52;100874.88;4985075;28;20069;-47
2022/07/05 03:40:00;;;;;;;5.85;1.40;;;;;;;11.95;64.21;100881.81;4982085;28;20055;-46
2022/07/05 03:42:27;;;;;;;4.22;1.60;;;;;;;11.99;64.00;100881.84;4979675;28;20043;-46
2022/07/05 03:44:53;;;;;;;2.53;1.33;;;;;;;12.02;63.34;100882.69;4984883;28;20046;-45
2022/07/05 03:47:20;;;;;;;5.03;1.77;;;;;;;12.06;63.75;100881.88;4982196;28;20068;-44
2022/07/05 03:49:47;;;;;;;2.90;1.40;;;;;;;12.11;64.46;100883.63;4987277;28;20049;-45
2022/07/05 03:52:14;;;;;;;3.47;1.75;;;;;;;12.14;64.11;100881.94;4982646;28;20546;-46
2022/07/05 03:54:43;;;;;;;4.07;1.67;;;;;;;12.18;63.49;100880.19;4981870;28;20038;-47
2022/07/05 03:57:11;;;;;;;4.65;1.50;;;;;;;12.22;63.91;100879.34;4984369;28;20493;-47
2022/07/05 03:59:38;;;;;;;3.50;1.13;;;;;;;12.25;64.34;100879.38;4983479;28;20046;-44
2022/07/05 04:02:05;;;;;;;2.42;0.93;;;;;;;12.29;63.85;100875.06;4979418;28;20969;-46
2022/07/05 04:04:32;;;;;;;3.35;1.80;;;;;;;12.33;63.50;100877.66;4984264;28;20054;-44
2022/07/05 04:06:59;;;;;;;4.32;1.85;;;;;;;12.36;64.34;100882.00;4984297;28;20057;-45
2022/07/05 04:09:25;;;;;;;3.42;1.48;;;;;;;12.37;63.40;100893.25;4982743;28;20054;-44
2022/07/05 04:11:52;;;;;;;4.85;1.52;;;;;;;12.37;63.80;100888.06;4982334;28;20055;-43
2022/07/05 04:14:19;;;;;;;3.33;1.30;;;;;;;12.39;63.50;100891.56;4986490;28;20046;-47
2022/07/05 04:16:45;;;;;;;5.90;2.22;;;;;;;12.36;63.08;100892.38;4980858;28;20054;-45
2022/07/05 04:19:12;;;;;;;4.65;1.30;;;;;;;12.34;63.90;100889.78;4984060;28;20057;-45
2022/07/05 04:21:39;;;;;;;5.13;1.38;;;;;;;12.32;63.77;100885.44;4981119;28;20047;-45
2022/07/05 04:24:06;;;;;;;4.30;1.45;;;;;;;12.30;64.51;100884.59;4981893;28;20050;-44
2022/07/05 04:26:32;;;;;;;3.83;1.63;;;;;;;12.28;64.28;100887.19;4980847;28;20050;-46
2022/07/05 04:28:59;;;;;;;4.43;1.25;;;;;;;12.26;63.85;100886.28;4984975;28;20046;-43
2022/07/05 04:31:25;;;;;;;3.58;1.45;;;;;;;12.25;63.77;100888.88;4983033;28;20050;-44
2022/07/05 04:33:52;;;;;;;6.00;1.75;;;;;;;12.23;63.34;100891.50;4982121;28;20050;-43
2022/07/05 04:36:19;;;;;;;3.90;1.88;;;;;;;12.23;64.33;100895.81;4986099;28;20049;-44
2022/07/05 04:38:45;;;;;;;6.57;2.05;;;;;;;12.23;63.53;100890.63;4983049;28;20112;-46
2022/07/05 04:41:12;;;;;;;4.22;1.60;;;;;;;12.20;63.04;100897.53;4977869;28;20054;-44
2022/07/05 04:43:39;;;;;;;4.68;1.67;;;;;;;12.19;63.82;100900.09;4983532;28;20053;-44
2022/07/05 04:46:05;;;;;;;3.53;1.58;;;;;;;12.16;63.29;100900.97;4985441;28;20053;-44
2022/07/05 04:48:32;;;;;;;3.10;1.70;;;;;;;12.20;64.06;100896.66;4985492;28;20054;-45
2022/07/05 04:50:59;;;;;;;4.78;1.95;;;;;;;12.24;63.88;100903.63;4988356;28;20058;-44
2022/07/05 04:53:25;;;;;;;4.30;1.70;;;;;;;12.27;64.96;100908.81;4984908;28;20133;-45
2022/07/05 04:55:52;;;;;;;3.65;1.75;;;;;;;12.30;63.56;100902.78;4986559;28;20101;-46
2022/07/05 04:58:19;;;;;;;4.15;1.50;;;;;;;12.37;64.73;100908.84;4983765;28;20125;-44
2022/07/05 05:00:45;;;;;;;4.70;1.55;;;;;;;12.45;64.61;100904.53;4982935;28;20061;-43
2022/07/05 05:03:12;;;;;;;3.17;1.75;;;;;;;12.56;64.02;100912.34;4985665;28;20046;-46
2022/07/05 05:05:38;;;;;;;3.38;1.88;;;;;;;12.66;64.59;100908.09;4984547;28;20136;-45
2022/07/05 05:08:05;;;;;;;3.90;1.40;;;;;;;12.77;64.74;100908.94;4983017;28;20101;-44
2022/07/05 05:10:32;;;;;;;4.22;1.50;;;;;;;12.89;63.91;100910.72;4981950;28;20541;-44
2022/07/05 05:12:58;;;;;;;2.88;1.80;;;;;;;13.02;64.48;100908.13;4983751;28;20201;-45
2022/07/05 05:15:25;;;;;;;4.55;1.85;;;;;;;13.13;63.86;100913.34;4983942;28;20052;-47
2022/07/05 05:17:52;;;;;;;3.75;1.70;;;;;;;13.25;63.95;100915.94;4984224;28;20046;-44
2022/07/05 05:20:19;;;;;;;3.08;1.50;;;;;;;13.39;64.34;100917.66;4985942;28;20769;-44
2022/07/05 05:22:46;;;;;;;5.05;2.05;;;;;;;13.54;63.96;100919.44;4965737;28;20178;-45
2022/07/05 05:25:13;;;;;;;4.88;1.88;;;;;;;13.71;64.40;100920.28;4984669;28;20521;-43
2022/07/05 05:27:46;;;;;;;3.83;1.55;;;;;;;13.92;64.33;100928.03;4982053;28;20058;-44
2022/07/05 05:30:17;;;;;;;4.47;1.50;;;;;;;14.11;63.59;100940.16;4979154;28;20053;-44
2022/07/05 05:32:44;;;;;;;3.42;1.77;;;;;;;14.30;63.89;100934.88;4980553;28;20046;-44
2022/07/05 05:35:11;;;;;;;3.50;1.60;;;;;;;14.50;63.90;100936.53;4982092;28;20077;-45
2022/07/05 05:37:48;;;;;;;3.92;1.90;;;;;;;14.67;63.76;100932.94;4982013;28;20050;-44
2022/07/05 05:40:15;;;;;;;5.60;1.70;;;;;;;14.83;63.21;100939.84;4968632;28;20053;-44
2022/07/05 05:42:42;;;;;;;4.75;1.88;;;;;;;14.95;62.69;100938.03;4991438;28;20330;-45
2022/07/05 05:45:09;;;;;;;3.95;1.50;;;;;;;15.07;62.62;100937.09;4986648;28;20115;-44
2022/07/05 05:47:54;;;;;;;3.38;1.83;;;;;;;15.19;62.45;100931.78;4986824;28;20101;-44
2022/07/05 05:50:23;;;;;;;3.90;1.75;;;;;;;15.38;62.96;100939.47;4991032;28;20050;-44
2022/07/05 05:52:51;;;;;;;3.63;1.73;;;;;;;15.58;62.37;100938.41;4986177;28;20089;-45
2022/07/05 05:55:19;;;;;;;5.13;1.42;;;;;;;15.77;62.01;100937.34;4972847;28;20050;-44
2022/07/05 05:57:47;;;;;;;3.53;2.17;;;;;;;16.00;61.98;100940.63;4989024;28;20054;-44
2022/07/05 06:00:15;;;;;;;4.25;2.05;;;;;;;16.16;61.46;100944.81;4984141;28;20043;-44
2022/07/05 06:02:43;;;;;;;4.13;1.60;;;;;;;16.33;61.78;100948.97;4986584;28;20116;-45
2022/07/05 06:05:10;;;;;;;4.95;1.75;;;;;;;16.42;61.61;100948.00;4980646;28;20054;-44
2022/07/05 06:07:55;;;;;;;4.25;1.90;;;;;;;16.44;61.16;100947.09;4988000;28;20051;-45
2022/07/05 06:10:24;;;;;;;5.80;2.08;;;;;;;16.52;60.92;100953.97;4988766;28;20054;-45
2022/07/05 06:12:52;;;;;;;3.83;1.50;;;;;;;16.54;59.92;100954.78;4983807;28;20051;-44
2022/07/05 06:15:20;;;;;;;3.90;1.98;;;;;;;16.55;60.50;100954.78;4984236;28;20077;-45
2022/07/05 06:17:47;;;;;;;2.50;1.33;;;;;;;16.56;60.30;100966.13;4986894;28;20053;-47
2022/07/05 06:20:17;;;;;;;3.15;1.50;;;;;;;16.62;60.33;100966.00;4987238;28;20046;-48
2022/07/05 06:22:44;;;;;;;3.75;1.58;;;;;;;16.68;60.56;100981.63;4983418;28;20131;-46
2022/07/05 06:25:11;;;;;;;5.45;1.95;;;;;;;16.80;60.11;100974.50;4988880;28;20051;-45
2022/07/05 06:30:28;;;;;;;4.03;2.22;;;;;;;17.02;60.34;100979.44;5067213;27;20396;-45
2022/07/05 06:32:56;;;;;;;3.55;1.55;;;;;;;17.14;59.92;100979.28;5054331;28;20468;-44
2022/07/05 06:35:23;;;;;;;2.30;1.90;;;;;;;17.20;59.20;100979.19;5067264;28;20118;-46
2022/07/05 06:40:32;;;;;;;2.60;0.90;;;;;;;17.39;58.75;100986.75;5058446;27;20400;-45
2022/07/05 06:43:01;;;;;;;2.70;1.05;;;;;;;17.54;58.61;100982.16;5040360;28;20052;-45
2022/07/05 06:45:27;;;;;;;2.65;1.10;;;;;;;17.65;58.68;100985.47;5035512;28;20049;-48
2022/07/05 06:47:59;;;;;;;2.13;0.95;;;;;;;17.71;58.08;100980.13;5042573;28;20045;-44
2022/07/05 06:50:27;;;;;;;1.42;0.80;;;;;;;17.71;58.08;100985.34;5033342;28;20472;-44
2022/07/05 06:52:54;;;;;;;1.50;0.65;;;;;;;17.69;57.36;100981.88;5039298;28;20470;-46
2022/07/05 06:55:21;;;;;;;4.03;0.85;;;;;;;17.67;57.15;100988.91;5039486;28;20053;-44
2022/07/05 06:57:55;;;;;;;2.28;0.73;;;;;;;17.68;57.21;100980.16;5039808;28;20770;-46
2022/07/05 07:00:40;;;;;;;3.28;1.00;;;;;;;17.67;57.46;100978.41;5038759;28;20136;-48
2022/07/05 07:03:26;;;;;;;1.55;1.20;;;;;;;17.65;57.42;100993.31;5037689;28;20072;-45
2022/07/05 07:06:13;;;;;;;1.63;0.77;;;;;;;17.67;56.89;100983.66;5037249;28;20076;-44
2022/07/05 07:11:27;;;;;;;3.28;0.80;;;;;;;17.69;56.78;100995.00;5027206;28;20045;-46
2022/07/05 07:13:54;;;;;;;5.20;0.70;;;;;;;17.67;57.13;100999.38;5039442;28;20060;-47
2022/07/05 07:16:21;;;;;;;4.07;0.90;;;;;;;17.68;57.21;101001.13;5039273;28;20053;-47
2022/07/05 07:18:47;;;;;;;2.13;0.88;;;;;;;17.82;57.04;100997.38;5037874;28;20045;-46
2022/07/05 07:21:34;;;;;;;2.35;2.05;;;;;;;18.07;57.06;101013.53;5038505;28;20812;-48
2022/07/05 07:24:01;;;;;;;4.70;1.25;;;;;;;18.16;56.68;101009.03;5039736;28;20481;-45
2022/07/05 07:26:28;;;;;;;6.50;1.13;;;;;;;18.13;56.40;101015.19;5038187;28;20049;-46
2022/07/05 07:28:54;;;;;;;1.42;0.82;;;;;;;18.12;56.31;101021.34;5041099;28;20049;-46
2022/07/05 07:31:21;;;;;;;3.13;0.73;;;;;;;18.11;56.50;101027.50;5032639;28;20045;-46
2022/07/05 07:33:48;;;;;;;2.65;0.93;;;;;;;18.24;55.99;101031.59;5031148;28;20052;-46
2022/07/05 07:36:14;;;;;;;2.92;0.73;;;;;;;18.35;55.88;101026.16;5040612;28;20045;-46
2022/07/05 07:38:42;;;;;;;2.75;0.90;;;;;;;18.46;55.57;101031.19;5038942;28;20045;-47
2022/07/05 07:41:08;;;;;;;5.88;1.23;;;;;;;18.54;55.33;101038.03;5036945;28;20133;-46
2022/07/05 07:43:35;;;;;;;4.35;0.63;;;;;;;18.64;55.21;101034.31;5038358;28;20068;-47
2022/07/05 07:46:02;;;;;;;3.85;1.05;;;;;;;18.71;55.43;101038.53;5042007;28;20045;-48
2022/07/05 07:48:29;;;;;;;4.30;1.23;;;;;;;18.99;55.17;101045.81;5037233;28;20055;-46
2022/07/05 07:50:56;;;;;;;6.75;1.83;;;;;;;19.47;55.10;101043.91;5027534;28;20116;-48
2022/07/05 07:53:23;;;;;;;5.07;1.00;;;;;;;19.93;54.40;101042.78;5019924;28;20052;-46
2022/07/05 07:55:49;;;;;;;5.65;0.88;;;;;;;20.46;53.58;101036.97;5024168;28;20053;-47
2022/07/05 07:58:16;;;;;;;2.33;0.60;;;;;;;;;;5023444;28;20049;-49
2022/07/05 08:00:43;;;;;;;1.63;0.63;;;;;;;20.94;51.55;101045.31;5021861;28;20688;-49
2022/07/05 08:03:10;;;;;;;3.50;0.50;;;;;;;20.95;50.88;101059.31;5021364;28;20057;-47
2022/07/05 08:05:36;;;;;;;2.28;0.40;;;;;;;21.06;49.81;101047.56;5021604;28;20041;-47
2022/07/05 08:08:03;;;;;;;1.25;0.45;;;;;;;21.27;49.59;101045.16;5024526;28;20769;-45
2022/07/05 08:10:32;;;;;;;2.20;0.40;;;;;;;21.38;48.32;101042.16;5023877;28;20044;-48
2022/07/05 08:12:59;;;;;;;2.38;0.47;;;;;;;21.50;49.15;101046.19;5023616;28;20049;-47
2022/07/05 08:15:25;;;;;;;3.65;0.93;;;;;;;21.60;47.87;101051.13;5023356;28;20394;-44
2022/07/05 08:23:25;;;;;;;3.83;0.60;;;;;;;20.95;47.37;101056.69;5019748;28;20129;-46
2022/07/05 08:25:58;;;;;;;3.15;1.20;;;;;;;20.74;47.58;101056.38;5029930;28;20152;-49
2022/07/05 08:28:26;;;;;;;3.20;1.60;;;;;;;20.59;47.73;101053.28;5024079;28;20421;-46
2022/07/05 08:30:53;;;;;;;2.95;0.50;;;;;;;20.42;47.55;101056.41;5023973;28;20057;-47
2022/07/05 08:33:19;;;;;;;2.97;0.63;;;;;;;20.32;48.41;101060.19;5023654;28;20053;-49
2022/07/05 08:35:46;;;;;;;2.60;1.27;;;;;;;20.27;47.74;101057.69;5025400;28;20041;-46
2022/07/05 08:38:13;;;;;;;2.75;0.52;;;;;;;20.28;48.75;101059.41;5023994;28;20049;-46
2022/07/05 08:40:45;;;;;;;3.03;0.60;;;;;;;20.29;47.38;101054.09;5022364;28;20042;-49
2022/07/05 08:43:14;;;;;;;2.05;0.90;;;;;;;20.39;47.81;101051.22;5024051;28;20055;-46
2022/07/05 08:45:43;;;;;;;4.05;1.13;;;;;;;20.61;48.64;101055.88;5024393;28;20049;-47
2022/07/05 08:48:10;;;;;;;3.08;0.73;;;;;;;20.78;48.01;101053.59;5024432;28;20076;-46
2022/07/05 08:50:39;;;;;;;2.75;0.43;;;;;;;20.95;47.45;101049.66;5025360;28;20140;-46
2022/07/05 08:53:06;;;;;;;4.55;0.85;;;;;;;20.98;47.11;101049.56;5026759;28;20053;-48
2022/07/05 08:55:33;;;;;;;2.30;0.77;;;;;;;21.00;47.31;101053.00;5004168;28;20077;-45
2022/07/05 08:58:00;;;;;;;1.38;0.63;;;;;;;21.03;46.94;101046.78;5020812;28;20080;-46
2022/07/05 09:00:28;;;;;;;1.63;0.82;;;;;;;21.05;47.15;101056.34;5026610;28;20042;-46
2022/07/05 09:03:04;;;;;;;3.92;0.70;;;;;;;21.08;47.05;101057.16;5023470;28;20115;-46
2022/07/05 09:05:39;;;;;;;1.40;0.70;;;;;;;21.06;47.18;101058.09;5022483;28;20045;-45
2022/07/05 09:08:09;;;;;;;2.40;0.60;;;;;;;21.04;47.10;101054.63;5025669;28;20103;-46
2022/07/05 09:10:38;;;;;;;3.00;0.95;;;;;;;21.01;46.41;101054.72;5027749;28;20049;-45
2022/07/05 09:13:04;;;;;;;1.05;0.68;;;;;;;21.04;46.69;101053.78;5026458;28;20060;-47
2022/07/05 09:15:31;;;;;;;4.30;0.70;;;;;;;21.16;46.91;101052.53;5025099;28;20665;-47
2022/07/05 09:17:57;;;;;;;4.80;1.23;;;;;;;21.23;46.69;101061.09;5023093;28;20414;-47
2022/07/05 09:20:26;;;;;;;2.05;0.63;;;;;;;21.25;46.17;101062.78;5021211;28;20041;-45
2022/07/05 09:22:55;;;;;;;6.07;0.70;;;;;;;21.31;46.39;101064.38;5018458;28;20046;-46
2022/07/05 09:28:04;;;;;;;2.47;0.57;;;;;;;21.67;46.36;101068.47;5022352;28;20412;-46
2022/07/05 09:33:10;;;;;;;2.55;2.35;;;;;;;21.80;45.48;101064.56;5018199;27;20899;-50
2022/07/05 09:35:39;;;;;;;4.10;1.52;;;;;;;21.75;45.59;101071.75;4998741;28;20054;-46
2022/07/05 09:38:17;;;;;;;5.50;2.13;;;;;;;21.75;45.44;101071.75;4979384;28;20467;-47
2022/07/05 09:40:47;;;;;;;2.42;0.85;;;;;;;21.92;45.81;101080.88;4976660;28;20438;-46
2022/07/05 09:43:17;;;;;;;3.85;2.22;;;;;;;22.08;45.66;101083.84;4979626;28;20043;-46
2022/07/05 09:48:35;;;;;;;2.70;0.63;;;;;;;22.32;45.54;101076.84;5037349;27;20406;-45
2022/07/05 09:51:11;;;;;;;3.28;0.70;;;;;;;22.41;45.32;101072.13;5027464;28;22641;-45
2022/07/05 09:54:00;;;;;;;3.20;0.75;;;;;;;22.54;45.11;101081.34;5027816;28;20669;-48
2022/07/05 09:56:43;;;;;;;4.65;0.60;;;;;;;22.54;44.57;101089.28;5021272;28;20049;-48
2022/07/05 09:59:13;;;;;;;1.92;0.98;;;;;;;22.51;44.60;101083.22;5017809;28;20045;-48
2022/07/05 10:01:40;;;;;;;4.63;1.13;;;;;;;22.38;44.62;101086.31;5008798;28;20568;-45
2022/07/05 10:04:08;;;;;;;2.70;0.77;;;;;;;22.22;44.48;101086.00;5028634;28;20041;-44
2022/07/05 10:06:35;;;;;;;3.60;0.90;;;;;;;22.04;45.11;101083.09;5026828;28;20406;-47
2022/07/05 10:09:01;;;;;;;2.30;0.57;;;;;;;21.97;45.49;101086.84;5021959;28;20056;-45
2022/07/05 10:11:28;;;;;;;2.50;0.65;;;;;;;22.04;45.48;101088.38;5025548;28;20049;-47
2022/07/05 10:13:58;;;;;;;1.42;0.68;;;;;;;22.11;45.82;101082.88;5028049;28;20048;-47
2022/07/05 10:16:25;;;;;;;2.25;1.17;;;;;;;22.08;45.52;101084.72;5018879;28;20057;-52
2022/07/05 10:18:55;;;;;;;1.88;0.80;;;;;;;21.99;45.06;101092.94;5017996;28;20219;-48
2022/07/05 10:21:26;;;;;;;1.75;0.63;;;;;;;21.93;45.89;101086.09;5030167;28;20041;-46
2022/07/05 10:23:54;;;;;;;4.35;0.55;;;;;;;21.92;45.92;101092.28;5029160;28;20548;-45
2022/07/05 10:26:22;;;;;;;2.45;0.75;;;;;;;22.02;46.26;101084.91;5030855;28;20041;-47
2022/07/05 10:28:51;;;;;;;1.67;0.55;;;;;;;22.17;45.72;101085.28;5027499;28;20058;-46
2022/07/05 10:31:27;;;;;;;2.50;0.63;;;;;;;22.11;45.09;101089.00;5027977;28;20056;-48
2022/07/05 10:33:56;;;;;;;3.42;0.57;;;;;;;22.13;45.16;101086.31;5029648;28;20060;-45
2022/07/05 10:36:24;;;;;;;1.48;0.50;;;;;;;22.21;46.24;101085.16;5028587;28;20049;-48
2022/07/05 10:38:51;;;;;;;1.42;0.50;;;;;;;22.37;45.92;101087.25;5028244;28;24841;-46
2022/07/05 10:41:24;;;;;;;1.92;0.60;;;;;;;22.53;46.06;101084.88;5017091;28;20064;-45
2022/07/05 10:43:55;;;;;;;2.17;0.50;;;;;;;22.70;45.61;101075.53;5016480;28;20143;-47
2022/07/05 10:46:41;;;;;;;4.13;0.60;;;;;;;22.83;44.77;101082.06;5012270;28;20058;-45
2022/07/05 10:49:13;;;;;;;0.95;0.77;;;;;;;22.89;44.95;101085.41;5037710;28;20115;-45
2022/07/05 10:51:39;;;;;;;1.52;0.40;;;;;;;22.88;45.57;101081.03;5029158;28;20053;-47
2022/07/05 10:54:06;;;;;;;4.68;0.90;;;;;;;22.91;44.95;101084.41;5028651;28;20041;-45
2022/07/05 10:56:33;;;;;;;2.80;0.60;;;;;;;22.93;45.37;101085.22;5033607;28;20049;-44
2022/07/05 10:59:07;;;;;;;3.15;0.55;;;;;;;22.93;45.22;101097.56;5005657;28;20489;-45
2022/07/05 11:01:36;;;;;;;2.33;0.50;;;;;;;22.94;45.00;101094.00;5005405;28;20107;-47
2022/07/05 11:06:43;;;;;;;3.22;0.98;;;;;;;23.08;43.37;101091.69;5029548;27;20403;-45
2022/07/05 11:22:35;;;;;;;2.72;0.80;;;;;;;22.91;46.24;101104.69;5079694;27;20402;-44
2022/07/05 11:25:03;;;;;;;3.88;1.08;;;;;;;22.95;45.22;101101.88;5036898;28;20092;-45
2022/07/05 11:27:32;;;;;;;1.17;0.68;;;;;;;23.06;45.07;101112.03;5036918;28;20072;-46
2022/07/05 11:29:59;;;;;;;2.60;0.60;;;;;;;23.16;44.98;101115.16;5037123;28;20489;-45
2022/07/05 11:35:15;;;;;;;2.80;1.38;;;;;;;23.27;45.07;101117.38;5075503;27;20389;-46
2022/07/05 11:38:00;;;;;;;3.72;0.80;;;;;;;23.46;45.72;101108.75;5044294;28;20103;-45
2022/07/05 11:40:46;;;;;;;3.47;1.10;;;;;;;23.75;45.89;101117.31;5035774;28;20446;-45
2022/07/05 11:43:13;;;;;;;4.00;0.73;;;;;;;23.87;45.09;101111.50;5042645;28;20041;-46
2022/07/05 11:45:40;;;;;;;4.97;0.90;;;;;;;23.94;44.98;101111.25;5038862;28;20049;-45
2022/07/05 11:48:14;;;;;;;4.90;0.90;;;;;;;24.09;44.95;101118.53;5040115;28;20060;-45
2022/07/05 11:50:41;;;;;;;3.53;1.00;;;;;;;24.21;44.51;101118.97;5038433;28;20444;-46
2022/07/05 11:53:11;;;;;;;2.40;1.02;;;;;;;24.17;44.27;101122.63;5039509;28;20111;-46
2022/07/05 11:55:39;;;;;;;1.15;0.65;;;;;;;24.18;44.23;101121.72;5042743;28;20151;-45
2022/07/05 11:58:09;;;;;;;3.30;1.60;;;;;;;24.20;44.64;101125.16;5037976;28;20428;-46
2022/07/05 12:00:37;;;;;;;3.35;0.90;;;;;;;24.19;44.12;101119.03;5040195;28;20076;-45
2022/07/05 12:03:13;;;;;;;2.63;0.90;;;;;;;24.05;43.90;101118.72;5037603;28;20464;-47
2022/07/05 12:05:40;;;;;;;4.00;0.93;;;;;;;23.90;44.26;101120.22;5037763;28;20127;-45
2022/07/05 12:08:09;;;;;;;3.00;1.00;;;;;;;23.77;45.12;101112.78;5040927;28;20045;-46
2022/07/05 12:13:44;;;;;;;2.05;0.98;;;;;;;23.73;45.18;101097.97;5033911;28;20096;-46
2022/07/05 12:16:12;;;;;;;4.45;1.55;;;;;;;23.75;45.16;101099.63;5038526;28;20451;-45